Time;durP1;ratioP1;P1;durP2;ratioP2;P2;SDS_P1;SDS_P2;PMS_P1;PMS_P2;Temp;Humidity;BMP_temperature;BMP_pressure;BME280_temperature;BME280_humidity;BME280_pressure;Samples;Min_cycle;Max_cycle;Signal;HPM_P1;HPM_P2
2024/02/12 00:00:11;;;;;;;0.60;0.60;;;;;;;-0.46;86.01;99038.03;5047966;28;20033;-69
2024/02/12 00:02:39;;;;;;;0.70;0.70;;;;;;;-0.51;86.34;99030.28;5047713;28;20017;-69
2024/02/12 00:05:07;;;;;;;1.63;1.52;;;;;;;-0.48;86.48;99037.16;5047888;28;20032;-69
2024/02/12 00:07:33;;;;;;;1.75;0.95;;;;;;;-0.44;86.21;99036.34;5047773;28;20129;-67
2024/02/12 00:10:05;;;;;;;1.95;1.50;;;;;;;-0.39;86.07;99039.81;5065458;28;20525;-67
2024/02/12 00:12:33;;;;;;;0.50;0.50;;;;;;;-0.42;85.80;99042.31;5065660;28;20074;-68
2024/02/12 00:14:59;;;;;;;0.90;0.90;;;;;;;-0.40;85.87;99033.84;5065560;28;20033;-67
2024/02/12 00:17:31;;;;;;;0.57;0.57;;;;;;;-0.35;85.50;99026.25;5047453;28;20025;-69
2024/02/12 00:19:56;;;;;;;0.80;0.80;;;;;;;-0.40;85.96;99025.38;5065858;28;20024;-68
2024/02/12 00:22:23;;;;;;;0.63;0.63;;;;;;;-0.42;86.14;99019.38;5065268;28;20053;-68
2024/02/12 00:24:49;;;;;;;0.70;0.70;;;;;;;-0.42;86.14;99020.25;5065466;28;20461;-69
2024/02/12 00:27:16;;;;;;;1.55;1.45;;;;;;;-0.42;86.17;99014.28;5065390;28;20481;-68
2024/02/12 00:29:44;;;;;;;0.82;0.80;;;;;;;-0.40;86.20;99021.09;5047489;28;20091;-69
2024/02/12 00:32:10;;;;;;;0.60;0.60;;;;;;;-0.32;85.59;99018.66;5065094;28;20059;-69
2024/02/12 00:34:36;;;;;;;0.50;0.50;;;;;;;-0.34;85.89;99020.34;5047175;28;20086;-69
2024/02/12 00:37:02;;;;;;;2.00;1.30;;;;;;;-0.24;85.00;99008.56;5065056;28;20028;-69
2024/02/12 00:39:27;;;;;;;0.50;0.50;;;;;;;-0.38;85.56;99010.91;5065042;28;20381;-70
2024/02/12 00:41:53;;;;;;;0.50;0.50;;;;;;;-0.36;85.65;99009.25;5064351;28;20029;-69
2024/02/12 00:44:20;;;;;;;0.95;0.93;;;;;;;-0.33;85.49;99009.28;5047137;28;20020;-70
2024/02/12 00:46:47;;;;;;;1.25;1.15;;;;;;;-0.31;85.55;99007.63;5047027;28;20033;-69
2024/02/12 00:49:16;;;;;;;1.60;1.50;;;;;;;-0.38;85.86;99000.72;5065178;28;20080;-69
2024/02/12 00:51:42;;;;;;;0.68;0.68;;;;;;;-0.33;85.74;99009.28;5065029;28;20029;-69
2024/02/12 00:54:14;;;;;;;1.42;1.38;;;;;;;-0.28;85.67;99010.22;5047087;28;20401;-68
2024/02/12 00:56:44;;;;;;;1.13;1.13;;;;;;;-0.32;86.20;99012.72;5064748;28;20069;-69
2024/02/12 00:59:14;;;;;;;0.95;0.95;;;;;;;-0.27;85.42;99016.16;5064893;28;20028;-69
2024/02/12 01:01:40;;;;;;;7.15;1.45;;;;;;;-0.24;85.08;99012.81;5064634;28;20025;-68
2024/02/12 01:04:07;;;;;;;0.60;0.60;;;;;;;-0.33;85.57;99011.84;5064897;28;20039;-69
2024/02/12 01:06:36;;;;;;;0.60;0.60;;;;;;;-0.32;85.58;99011.00;5064803;28;20035;-69
2024/02/12 01:09:05;;;;;;;0.90;0.90;;;;;;;-0.39;85.87;99010.09;5064960;28;20021;-69
2024/02/12 01:11:31;;;;;;;1.27;1.25;;;;;;;-0.34;86.08;99002.50;5046808;28;20101;-69
2024/02/12 01:13:57;;;;;;;1.33;1.23;;;;;;;-0.35;86.16;99005.84;5064661;28;20535;-69
2024/02/12 01:16:23;;;;;;;0.60;0.60;;;;;;;-0.38;86.13;99010.91;5046558;28;20021;-69
2024/02/12 01:18:51;;;;;;;0.85;0.85;;;;;;;-0.42;86.21;98988.78;5064612;28;20020;-70
2024/02/12 01:21:17;;;;;;;0.68;0.68;;;;;;;-0.31;85.74;98997.44;5064740;28;20017;-70
2024/02/12 01:23:43;;;;;;;2.42;2.33;;;;;;;-0.41;86.10;99005.78;5046744;28;20016;-69
2024/02/12 01:26:11;;;;;;;0.95;0.95;;;;;;;-0.40;85.95;98997.31;5064730;28;20036;-69
2024/02/12 01:28:37;;;;;;;1.30;1.30;;;;;;;-0.44;86.02;98995.53;5064429;28;20059;-70
2024/02/12 01:31:03;;;;;;;24.27;2.00;;;;;;;-0.47;86.14;98990.41;5064647;28;20017;-69
2024/02/12 01:33:30;;;;;;;0.60;0.60;;;;;;;-0.49;86.14;98998.03;5064351;28;20108;-69
2024/02/12 01:35:55;;;;;;;0.70;0.70;;;;;;;-0.58;86.41;98993.66;5064675;28;20076;-68
2024/02/12 01:38:21;;;;;;;0.57;0.57;;;;;;;-0.58;86.56;98991.13;5064400;28;20485;-69
2024/02/12 01:40:46;;;;;;;1.20;1.10;;;;;;;-0.53;86.41;98997.13;5064368;28;20083;-69
2024/02/12 01:43:31;;;;;;;1.95;1.85;;;;;;;-0.54;86.29;98994.56;5064385;28;20503;-69
2024/02/12 01:46:00;;;;;;;0.70;0.70;;;;;;;-0.55;86.21;98987.75;5046563;28;20523;-69
2024/02/12 01:48:26;;;;;;;2.35;2.15;;;;;;;-0.61;86.11;98975.78;5064395;28;20033;-69
2024/02/12 01:50:52;;;;;;;0.65;0.65;;;;;;;-0.54;85.97;98984.34;5064211;28;20029;-68
2024/02/12 01:53:19;;;;;;;4.13;2.45;;;;;;;-0.50;85.49;98981.88;5065268;28;20083;-69
2024/02/12 01:55:45;;;;;;;1.15;1.05;;;;;;;-0.50;85.19;98983.56;5049888;28;20508;-68
2024/02/12 01:58:13;;;;;;;1.02;0.98;;;;;;;-0.59;85.58;98991.94;5068317;28;20017;-69
2024/02/12 02:00:42;;;;;;;0.93;0.93;;;;;;;-0.61;85.91;98992.75;5066948;28;20067;-69
2024/02/12 02:03:08;;;;;;;1.52;1.42;;;;;;;-0.72;86.11;98979.88;5066653;28;20024;-69
2024/02/12 02:05:35;;;;;;;3.42;1.98;;;;;;;-0.66;85.89;98998.66;5068197;28;20025;-69
2024/02/12 02:08:01;;;;;;;1.50;1.40;;;;;;;-0.73;86.28;98979.00;5049830;28;20036;-67
2024/02/12 02:10:27;;;;;;;1.15;1.10;;;;;;;-0.66;86.01;98988.47;5067812;28;20388;-69
2024/02/12 02:12:53;;;;;;;0.50;0.50;;;;;;;-0.72;86.30;98983.28;5067706;28;20516;-66
2024/02/12 02:15:19;;;;;;;0.82;0.82;;;;;;;-0.71;86.35;98981.56;5049770;28;20025;-68
2024/02/12 02:17:45;;;;;;;0.80;0.80;;;;;;;-0.70;86.46;98989.25;5067639;28;20036;-69
2024/02/12 02:20:12;;;;;;;1.08;0.98;;;;;;;-0.76;86.30;98984.06;5067899;28;20021;-69
2024/02/12 02:22:38;;;;;;;2.63;1.90;;;;;;;-0.76;86.46;98979.81;5067476;28;20032;-69
2024/02/12 02:25:05;;;;;;;1.52;1.20;;;;;;;-0.75;85.92;98981.53;5067579;28;20021;-69
2024/02/12 02:27:30;;;;;;;8.63;3.75;;;;;;;-0.71;86.32;98996.88;5067604;28;20048;-69
2024/02/12 02:29:56;;;;;;;1.80;1.70;;;;;;;-0.75;86.49;98990.84;5049687;28;20369;-69
2024/02/12 02:32:21;;;;;;;1.80;1.48;;;;;;;-0.73;86.51;98986.66;5067028;28;20084;-68
2024/02/12 02:34:47;;;;;;;1.05;1.00;;;;;;;-0.68;86.35;98984.16;5067391;28;20021;-69
2024/02/12 02:37:12;;;;;;;0.65;0.65;;;;;;;-0.69;86.10;98982.47;5067400;28;20028;-69
2024/02/12 02:39:37;;;;;;;6.25;1.23;;;;;;;-0.71;86.21;98982.44;5067521;28;20052;-69
2024/02/12 02:42:03;;;;;;;0.60;0.60;;;;;;;-0.69;86.27;98977.38;5067210;28;20036;-68
2024/02/12 02:44:29;;;;;;;1.27;0.82;;;;;;;-0.74;86.34;98972.19;5067464;28;20059;-69
2024/02/12 02:46:55;;;;;;;0.90;0.90;;;;;;;-0.73;86.92;98993.44;5049321;28;20460;-69
2024/02/12 02:49:20;;;;;;;1.50;1.40;;;;;;;-0.72;86.38;98983.28;5049155;28;20041;-69
2024/02/12 02:51:46;;;;;;;0.85;0.82;;;;;;;-0.73;86.60;98993.44;5066739;28;20016;-69
2024/02/12 02:54:12;;;;;;;1.95;1.83;;;;;;;-0.74;86.75;98977.31;5067146;28;20025;-70
2024/02/12 02:56:37;;;;;;;1.95;1.85;;;;;;;-0.73;86.72;98980.69;5066871;28;20053;-69
2024/02/12 02:59:03;;;;;;;0.57;0.57;;;;;;;-0.69;86.90;98990.97;5067047;28;20028;-69
2024/02/12 03:01:28;;;;;;;1.67;1.58;;;;;;;-0.74;87.22;98987.50;5048824;28;20029;-69
2024/02/12 03:03:55;;;;;;;8.15;2.50;;;;;;;-0.64;86.55;98989.31;5049033;28;20021;-69
2024/02/12 03:06:21;;;;;;;0.98;0.95;;;;;;;-0.65;86.78;98990.16;5066242;28;20033;-70
2024/02/12 03:08:50;;;;;;;0.80;0.80;;;;;;;-0.64;86.77;98984.22;5066820;28;20089;-69
2024/02/12 03:11:19;;;;;;;2.78;2.22;;;;;;;-0.61;86.68;98996.19;5066356;28;20084;-69
2024/02/12 03:13:45;;;;;;;0.50;0.50;;;;;;;-0.60;86.80;98995.34;5066600;28;20021;-69
2024/02/12 03:16:17;;;;;;;0.80;0.80;;;;;;;-0.46;85.85;98987.88;5066630;28;20044;-69
2024/02/12 03:18:46;;;;;;;1.92;1.83;;;;;;;-0.56;86.09;98988.59;5066479;28;20035;-69
2024/02/12 03:21:12;;;;;;;1.23;1.15;;;;;;;-0.53;85.63;98992.03;5066775;28;20029;-68
2024/02/12 03:23:37;;;;;;;0.93;0.93;;;;;;;-0.50;85.19;99002.25;5048580;28;20013;-69
2024/02/12 03:26:06;;;;;;;1.33;1.25;;;;;;;-0.50;85.14;98997.16;5066508;28;20027;-69
2024/02/12 03:28:32;;;;;;;0.60;0.60;;;;;;;-0.63;86.01;98980.00;5048553;28;20055;-70
2024/02/12 03:30:57;;;;;;;1.02;0.90;;;;;;;-0.59;85.95;98991.94;5066653;28;20020;-69
2024/02/12 03:33:22;;;;;;;12.48;2.58;;;;;;;-0.58;85.75;98993.66;5048219;28;20029;-69
2024/02/12 03:35:48;;;;;;;1.27;1.02;;;;;;;-0.60;85.74;98989.38;5066018;28;20036;-69
2024/02/12 03:38:13;;;;;;;1.52;1.42;;;;;;;-0.54;84.94;98997.09;5048276;28;20479;-70
2024/02/12 03:40:38;;;;;;;4.28;2.40;;;;;;;-0.67;85.50;98986.72;5065752;28;20024;-69
2024/02/12 03:43:08;;;;;;;1.00;1.00;;;;;;;-0.73;85.64;98993.44;5047985;28;20044;-68
2024/02/12 03:45:35;;;;;;;0.85;0.85;;;;;;;-0.75;85.93;98994.28;5066177;28;20051;-69
2024/02/12 03:59:50;;;;;;;1.27;1.17;;;;;;;-0.78;86.03;98978.06;5066138;28;20025;-67
2024/02/12 04:01:48;;;;;;;0.70;0.70;;;;;;;-0.94;86.33;98980.41;5065546;28;20059;-66
2024/02/12 04:04:14;;;;;;;0.60;0.60;;;;;;;-0.94;86.06;98960.00;5047922;28;20009;-67
2024/02/12 04:06:39;;;;;;;2.15;1.95;;;;;;;-0.99;86.27;98966.72;5065609;28;20078;-67
2024/02/12 04:09:04;;;;;;;3.00;1.33;;;;;;;-0.99;86.15;98961.63;5065784;28;20028;-67
2024/02/12 04:11:30;;;;;;;0.82;0.82;;;;;;;-0.92;85.62;98975.31;5047611;28;20051;-67
2024/02/12 04:13:56;;;;;;;5.35;2.35;;;;;;;-1.05;85.88;98975.13;5047445;28;20029;-68
2024/02/12 04:16:22;;;;;;;3.08;1.30;;;;;;;-0.95;85.64;98972.72;5046975;28;20029;-67
2024/02/12 04:18:48;;;;;;;0.60;0.60;;;;;;;-1.02;85.65;98969.22;5065052;28;20094;-66
2024/02/12 04:21:16;;;;;;;1.90;1.80;;;;;;;-1.08;85.97;98959.81;5047661;28;20025;-67
2024/02/12 04:23:42;;;;;;;2.63;2.42;;;;;;;-1.01;85.99;98964.16;5047393;28;20503;-67
2024/02/12 04:26:10;;;;;;;3.97;2.08;;;;;;;-1.02;85.65;98972.63;5065355;28;20104;-69
2024/02/12 04:28:39;;;;;;;1.48;1.38;;;;;;;-1.00;84.94;99000.69;5047339;28;20051;-67
2024/02/12 04:31:05;;;;;;;1.58;1.48;;;;;;;-1.08;84.96;98977.63;5065298;28;20020;-67
2024/02/12 04:33:32;;;;;;;2.72;2.53;;;;;;;-1.18;85.55;98970.69;5065048;28;20031;-68
2024/02/12 04:36:01;;;;;;;1.15;1.05;;;;;;;-1.14;85.45;98987.72;5047219;28;20025;-67
2024/02/12 04:38:26;;;;;;;0.70;0.70;;;;;;;-1.30;85.83;98977.31;5065128;28;20034;-68
2024/02/12 04:40:52;;;;;;;1.48;1.38;;;;;;;-1.20;85.63;98985.09;5047091;28;20021;-68
2024/02/12 04:43:17;;;;;;;1.52;1.45;;;;;;;-1.32;85.72;98967.91;5047001;28;20025;-68
2024/02/12 04:45:42;;;;;;;0.65;0.65;;;;;;;-1.25;85.36;98968.03;5064932;28;20527;-67
2024/02/12 04:48:13;;;;;;;0.70;0.70;;;;;;;-1.21;85.73;98985.91;5064963;28;20029;-67
2024/02/12 04:50:38;;;;;;;0.60;0.60;;;;;;;-1.24;85.96;98989.25;5064956;28;20024;-66
2024/02/12 04:53:04;;;;;;;2.40;2.25;;;;;;;-1.21;85.77;98983.34;5046601;28;20029;-66
2024/02/12 04:55:30;;;;;;;1.20;1.20;;;;;;;-1.22;85.54;98989.28;5065023;28;20052;-67
2024/02/12 04:57:56;;;;;;;1.77;1.17;;;;;;;-1.32;85.86;98978.97;5047029;28;20037;-66
2024/02/12 05:00:22;;;;;;;0.65;0.65;;;;;;;-1.31;85.83;98987.47;5047153;28;20176;-67
2024/02/12 05:02:47;;;;;;;2.97;1.90;;;;;;;-1.35;85.79;98986.53;5046643;28;20473;-66
2024/02/12 05:05:13;;;;;;;5.18;3.00;;;;;;;-1.37;85.85;98988.19;5046902;28;20023;-67
2024/02/12 05:07:39;;;;;;;1.98;1.73;;;;;;;-1.35;86.03;98991.63;5046657;28;20404;-68
2024/02/12 05:10:05;;;;;;;2.40;1.75;;;;;;;-1.35;85.92;98975.50;5064895;28;20045;-67
2024/02/12 05:12:31;;;;;;;2.03;1.30;;;;;;;-1.28;85.73;98987.50;5064704;28;20021;-70
2024/02/12 05:14:57;;;;;;;0.70;0.70;;;;;;;-1.28;85.58;98990.91;5064821;28;20036;-67
2024/02/12 05:17:31;;;;;;;3.42;1.65;;;;;;;-1.35;85.73;98989.09;5046658;28;20025;-67
2024/02/12 05:22:41;;;;;;;0.85;0.80;;;;;;;-1.33;85.90;98974.72;5064791;28;20048;-68
2024/02/12 05:25:07;;;;;;;1.00;1.00;;;;;;;-1.37;85.97;98978.00;5046527;28;20025;-67
2024/02/12 05:27:33;;;;;;;1.20;1.10;;;;;;;-1.30;85.98;98991.72;5046550;28;20025;-69
2024/02/12 05:29:58;;;;;;;4.78;1.88;;;;;;;-1.32;85.97;98988.28;5068713;28;20047;-64
2024/02/12 05:32:24;;;;;;;0.50;0.50;;;;;;;-1.26;85.84;98996.00;5068347;28;20039;-67
2024/02/12 05:34:50;;;;;;;4.78;2.28;;;;;;;-1.28;85.91;98987.50;5068490;28;20381;-72
2024/02/12 05:37:18;;;;;;;0.95;0.93;;;;;;;-1.26;85.94;98994.34;5068566;28;20021;-67
2024/02/12 05:39:44;;;;;;;1.77;1.58;;;;;;;-1.28;85.97;98987.50;5050171;28;20021;-67
2024/02/12 05:42:09;;;;;;;3.50;1.88;;;;;;;-1.26;85.95;98979.06;5050230;28;20052;-68
2024/02/12 05:44:35;;;;;;;2.05;1.85;;;;;;;-1.16;85.71;98979.19;5068559;28;20015;-68
2024/02/12 05:47:01;;;;;;;1.33;1.05;;;;;;;-1.21;85.69;98988.44;5067920;28;20078;-69
2024/02/12 05:49:28;;;;;;;10.82;1.67;;;;;;;-1.18;85.84;98981.72;5050487;28;20012;-69
2024/02/12 05:51:55;;;;;;;0.75;0.75;;;;;;;-1.15;85.88;98986.03;5068373;28;20021;-67
2024/02/12 05:54:20;;;;;;;0.90;0.90;;;;;;;-1.09;85.93;98990.34;5050051;28;20374;-68
2024/02/12 05:56:46;;;;;;;2.90;1.60;;;;;;;-1.13;86.00;98989.44;5068082;28;20060;-68
2024/02/12 05:59:12;;;;;;;2.65;2.45;;;;;;;-1.07;85.74;98983.59;5067940;28;20028;-68
2024/02/12 06:01:37;;;;;;;1.98;1.88;;;;;;;-1.07;85.93;98987.00;5066879;28;20084;-68
2024/02/12 06:04:03;;;;;;;2.42;1.80;;;;;;;-1.11;85.82;98982.69;5067416;28;20025;-68
2024/02/12 06:06:29;;;;;;;0.90;0.85;;;;;;;-1.03;85.85;98986.22;5068165;28;20029;-67
2024/02/12 06:08:54;;;;;;;1.10;1.00;;;;;;;-1.04;85.73;98979.38;5067996;28;20504;-67
2024/02/12 06:11:20;;;;;;;14.73;2.25;;;;;;;-0.97;85.65;98995.63;5068158;28;20036;-68
2024/02/12 06:13:46;;;;;;;1.50;1.40;;;;;;;-1.02;85.74;98985.38;5067948;28;20047;-69
2024/02/12 06:16:11;;;;;;;1.55;1.45;;;;;;;-0.99;85.70;98994.75;5067838;28;20025;-68
2024/02/12 06:18:37;;;;;;;2.92;2.72;;;;;;;-1.06;85.75;98993.81;5067813;28;20080;-67
2024/02/12 06:21:02;;;;;;;0.85;0.85;;;;;;;-1.04;85.90;98994.69;5067615;28;20032;-70
2024/02/12 06:23:28;;;;;;;2.40;2.25;;;;;;;-1.08;85.90;98982.72;5067693;28;20447;-70
2024/02/12 06:25:53;;;;;;;1.08;0.90;;;;;;;-1.06;85.89;98987.84;5049699;28;20024;-69
2024/02/12 06:28:19;;;;;;;1.40;1.05;;;;;;;-1.13;85.91;98990.31;5049729;28;20028;-69
2024/02/12 06:30:46;;;;;;;1.23;1.10;;;;;;;-1.14;86.14;98983.50;5049706;28;20108;-69
2024/02/12 06:33:11;;;;;;;0.60;0.60;;;;;;;-1.10;86.15;98994.59;5049566;28;20029;-68
2024/02/12 06:35:37;;;;;;;0.63;0.63;;;;;;;-1.09;86.30;98991.22;5067467;28;20120;-69
2024/02/12 06:38:03;;;;;;;1.80;1.17;;;;;;;-1.18;86.26;98978.34;5066269;28;20025;-68
2024/02/12 06:40:29;;;;;;;0.88;0.88;;;;;;;-1.09;86.36;98996.31;5065386;28;20036;-69
2024/02/12 06:42:55;;;;;;;2.38;1.67;;;;;;;-1.07;86.44;98997.19;5067399;28;20032;-69
2024/02/12 06:45:20;;;;;;;1.30;1.25;;;;;;;-1.01;86.35;99009.16;5067475;28;20045;-69
2024/02/12 06:47:46;;;;;;;2.35;2.25;;;;;;;-1.00;86.50;99008.34;5067255;28;20025;-69
2024/02/12 06:50:12;;;;;;;1.75;1.65;;;;;;;-0.97;86.63;99008.38;5067543;28;20028;-70
2024/02/12 06:52:39;;;;;;;0.98;0.98;;;;;;;-1.03;86.85;98996.41;5048810;28;20408;-70
2024/02/12 06:55:10;;;;;;;0.63;0.63;;;;;;;-0.98;86.66;99006.66;5049026;28;20089;-69
2024/02/12 06:57:35;;;;;;;1.00;1.00;;;;;;;-0.94;87.04;99016.06;5049204;28;20037;-70
2024/02/12 07:00:04;;;;;;;1.65;1.58;;;;;;;-0.92;87.32;99018.63;5049274;28;20052;-70
2024/02/12 07:02:29;;;;;;;0.50;0.50;;;;;;;-0.98;87.54;99004.13;5048900;28;20112;-69
2024/02/12 07:04:55;;;;;;;1.38;1.33;;;;;;;-0.91;87.55;99015.28;5049319;28;20017;-71
2024/02/12 07:07:20;;;;;;;1.48;1.38;;;;;;;-0.89;87.83;99019.56;5066975;28;20025;-71
2024/02/12 07:09:45;;;;;;;1.80;1.70;;;;;;;-0.86;88.16;99021.28;5049113;28;20032;-69
2024/02/12 07:12:11;;;;;;;1.88;1.77;;;;;;;-0.88;88.21;99030.63;5066997;28;20084;-70
2024/02/12 07:14:37;;;;;;;0.90;0.90;;;;;;;-0.89;88.64;99026.34;5066936;28;20021;-71
2024/02/12 07:17:02;;;;;;;5.32;2.10;;;;;;;-0.88;88.68;99026.34;5048747;28;20028;-70
2024/02/12 07:19:28;;;;;;;1.45;1.35;;;;;;;-0.86;88.73;99028.09;5067106;28;20454;-71
2024/02/12 07:21:53;;;;;;;2.25;1.45;;;;;;;-0.91;88.97;99021.22;5048999;28;20032;-71
2024/02/12 07:24:18;;;;;;;4.03;0.80;;;;;;;-0.83;88.83;99017.94;5048772;28;20202;-71
2024/02/12 07:26:45;;;;;;;3.53;1.60;;;;;;;-0.83;89.36;99028.97;5048652;28;20032;-72
2024/02/12 07:29:11;;;;;;;2.00;1.90;;;;;;;-0.83;89.34;99031.53;5066570;28;20048;-72
2024/02/12 07:31:37;;;;;;;1.77;1.67;;;;;;;-0.83;89.59;99031.53;5048869;28;20020;-71
2024/02/12 07:34:03;;;;;;;1.85;0.90;;;;;;;-0.78;89.60;99036.69;5066477;28;20031;-73
2024/02/12 07:36:29;;;;;;;6.38;1.67;;;;;;;-0.75;89.82;99042.69;5048714;28;20334;-73
2024/02/12 07:38:54;;;;;;;2.70;2.50;;;;;;;-0.77;89.71;99036.72;5066561;28;20028;-73
2024/02/12 07:41:20;;;;;;;2.03;1.67;;;;;;;-0.73;89.97;99037.63;5048457;28;20033;-72
2024/02/12 07:43:45;;;;;;;0.90;0.90;;;;;;;-0.71;90.07;99042.75;5066351;28;20021;-74
2024/02/12 07:46:14;;;;;;;1.45;1.13;;;;;;;-0.70;90.41;99036.84;5066544;28;20078;-72
2024/02/12 07:48:41;;;;;;;0.50;0.50;;;;;;;-0.65;90.33;99040.28;5048444;28;20016;-74
2024/02/12 07:51:06;;;;;;;0.90;0.90;;;;;;;-0.65;90.38;99042.84;5048107;28;20021;-72
2024/02/12 07:53:32;;;;;;;1.75;1.60;;;;;;;-0.65;90.51;99041.16;5066166;28;20032;-72
2024/02/12 07:56:00;;;;;;;0.82;0.82;;;;;;;-0.67;90.77;99041.97;5066061;28;20053;-72
2024/02/12 07:58:26;;;;;;;6.90;1.42;;;;;;;-0.68;90.68;99038.56;5048280;28;20099;-72
2024/02/12 08:00:51;;;;;;;1.00;0.90;;;;;;;-0.59;91.01;99047.19;5066204;28;20032;-70
2024/02/12 08:03:18;;;;;;;1.95;1.83;;;;;;;-0.57;91.04;99046.38;5065791;28;20013;-70
2024/02/12 08:05:47;;;;;;;14.25;1.80;;;;;;;-0.57;90.89;99048.91;5048147;28;20032;-70
2024/02/12 08:08:13;;;;;;;0.70;0.70;;;;;;;-0.54;91.09;99051.50;5066104;28;20017;-70
2024/02/12 08:10:39;;;;;;;1.10;1.00;;;;;;;-0.58;91.23;99048.88;5066049;28;20492;-71
2024/02/12 08:13:05;;;;;;;1.27;1.17;;;;;;;-0.56;91.30;99052.34;5065714;28;20032;-70
2024/02/12 08:15:31;;;;;;;1.05;1.05;;;;;;;-0.58;91.37;99049.75;5065691;28;20445;-71
2024/02/12 08:17:57;;;;;;;0.73;0.73;;;;;;;-0.59;91.45;99052.28;5047665;28;20017;-71
2024/02/12 08:20:24;;;;;;;0.80;0.80;;;;;;;-0.56;91.46;99042.97;5065697;28;20116;-71
2024/02/12 08:22:49;;;;;;;1.50;1.20;;;;;;;-0.58;91.55;99036.16;5047864;28;20472;-72
2024/02/12 08:25:14;;;;;;;0.68;0.68;;;;;;;-0.51;91.64;99051.56;5065837;28;20044;-71
2024/02/12 08:27:40;;;;;;;0.65;0.65;;;;;;;-0.50;91.78;99057.53;5065649;28;20028;-72
2024/02/12 08:30:06;;;;;;;0.95;0.95;;;;;;;-0.50;91.83;99050.72;5065794;28;20029;-72
2024/02/12 08:32:32;;;;;;;1.45;1.35;;;;;;;-0.50;91.87;99060.06;5047196;28;20389;-71
2024/02/12 08:34:58;;;;;;;3.42;3.05;;;;;;;-0.46;92.08;99059.25;5047597;28;20092;-72
2024/02/12 08:37:24;;;;;;;1.58;0.98;;;;;;;-0.52;91.97;99054.06;5047480;28;20052;-73
2024/02/12 08:39:49;;;;;;;0.90;0.85;;;;;;;-0.46;92.11;99063.53;5047661;28;20101;-73
2024/02/12 08:42:15;;;;;;;1.48;1.40;;;;;;;-0.45;92.27;99071.19;5047698;28;20021;-71
2024/02/12 08:44:41;;;;;;;0.57;0.57;;;;;;;-0.45;92.21;99071.19;5066704;28;20112;-72
2024/02/12 08:47:06;;;;;;;1.35;1.25;;;;;;;-0.44;92.33;99064.38;5049102;28;20032;-74
2024/02/12 08:49:37;;;;;;;4.90;2.00;;;;;;;-0.47;92.31;99061.78;5068581;28;20017;-72
2024/02/12 08:52:03;;;;;;;1.25;1.25;;;;;;;-0.42;92.31;99073.78;5066469;28;20032;-72
2024/02/12 08:54:30;;;;;;;1.33;0.60;;;;;;;-0.40;92.50;99079.75;5065716;28;20111;-72
2024/02/12 08:56:56;;;;;;;0.95;0.95;;;;;;;-0.42;92.53;99076.34;5064880;28;20056;-73
2024/02/12 08:59:23;;;;;;;0.88;0.88;;;;;;;-0.42;92.63;99076.34;5047112;28;20024;-73
2024/02/12 09:01:49;;;;;;;1.15;1.10;;;;;;;-0.40;92.63;99078.91;5065000;28;20024;-72
2024/02/12 09:04:14;;;;;;;1.25;1.25;;;;;;;-0.41;92.76;99078.03;5064322;28;20032;-72
2024/02/12 09:06:40;;;;;;;0.50;0.50;;;;;;;-0.40;92.73;99077.19;5065044;28;20025;-74
2024/02/12 09:09:12;;;;;;;0.98;0.98;;;;;;;-0.39;92.89;99078.06;5065235;28;20052;-74
2024/02/12 09:11:38;;;;;;;1.02;1.02;;;;;;;-0.39;92.85;99086.59;5064999;28;20052;-74
2024/02/12 09:14:06;;;;;;;3.20;2.92;;;;;;;-0.47;92.89;99077.97;5046766;28;20028;-74
2024/02/12 09:16:31;;;;;;;6.45;5.93;;;;;;;-0.41;93.20;99087.38;5046731;28;20025;-73
2024/02/12 09:18:57;;;;;;;10.18;9.20;;;;;;;-0.40;93.21;99081.47;5064770;28;20058;-72
2024/02/12 09:21:22;;;;;;;12.57;8.77;;;;;;;-0.38;93.13;99082.31;5046914;28;20025;-73
2024/02/12 09:23:47;;;;;;;8.15;7.35;;;;;;;-0.37;93.44;99089.16;5064562;28;20032;-72
2024/02/12 09:26:13;;;;;;;6.97;6.32;;;;;;;-0.36;93.28;99088.31;5064767;28;20099;-72
2024/02/12 09:28:38;;;;;;;3.85;3.55;;;;;;;-0.36;93.39;99088.31;5064688;28;20049;-72
2024/02/12 09:31:09;;;;;;;3.92;2.78;;;;;;;-0.35;93.37;99086.63;5065004;28;20025;-73
2024/02/12 09:33:38;;;;;;;1.45;1.35;;;;;;;-0.34;93.36;99091.75;5064406;28;20079;-72
2024/02/12 09:36:04;;;;;;;2.17;2.05;;;;;;;-0.34;93.38;99093.44;5046795;28;20082;-72
2024/02/12 09:38:29;;;;;;;2.88;1.23;;;;;;;-0.33;93.40;99095.13;5064681;28;20112;-72
2024/02/12 09:40:57;;;;;;;0.60;0.60;;;;;;;-0.33;93.67;99100.25;5046890;28;20128;-72
2024/02/12 09:43:24;;;;;;;5.95;1.42;;;;;;;-0.30;93.64;99105.38;5046435;28;20021;-73
2024/02/12 09:45:53;;;;;;;1.30;1.20;;;;;;;-0.31;93.64;99114.75;5046764;28;20017;-72
2024/02/12 09:48:20;;;;;;;0.70;0.70;;;;;;;-0.31;93.50;99099.44;5063037;28;20477;-73
2024/02/12 09:50:49;;;;;;;0.60;0.60;;;;;;;-0.31;93.55;99101.13;5064557;28;20110;-72
2024/02/12 09:53:17;;;;;;;0.80;0.80;;;;;;;-0.30;93.56;99113.91;5064558;28;20025;-74
2024/02/12 09:55:46;;;;;;;0.60;0.60;;;;;;;-0.31;93.53;99112.19;5064489;28;20053;-72
2024/02/12 09:58:12;;;;;;;0.50;0.50;;;;;;;-0.29;93.40;99109.69;5064311;28;20024;-73
2024/02/12 10:00:38;;;;;;;1.55;1.42;;;;;;;-0.32;93.58;99110.47;5063823;28;20108;-73
2024/02/12 10:03:03;;;;;;;0.70;0.70;;;;;;;-0.28;93.59;99113.94;5063232;28;20021;-72
2024/02/12 10:05:31;;;;;;;0.60;0.60;;;;;;;-0.29;93.66;99115.63;5064402;28;20386;-72
2024/02/12 10:07:57;;;;;;;1.08;0.77;;;;;;;-0.30;93.90;99113.03;5064644;28;20048;-73
2024/02/12 10:10:22;;;;;;;0.77;0.77;;;;;;;-0.33;93.64;99111.31;5064546;28;20040;-74
2024/02/12 10:12:53;;;;;;;0.80;0.80;;;;;;;-0.33;93.44;99116.41;5046377;28;20084;-73
2024/02/12 10:15:20;;;;;;;0.90;0.90;;;;;;;-0.27;93.49;99121.59;5048981;28;20032;-73
2024/02/12 10:17:47;;;;;;;0.70;0.70;;;;;;;-0.34;93.53;99112.16;5068129;28;20029;-73
2024/02/12 10:20:12;;;;;;;0.65;0.65;;;;;;;-0.30;93.40;99119.00;5050169;28;20025;-74
2024/02/12 10:22:41;;;;;;;0.55;0.55;;;;;;;-0.30;93.54;99124.09;5067778;28;20033;-73
2024/02/12 10:25:11;;;;;;;0.85;0.85;;;;;;;-0.32;93.54;99118.13;5067898;28;20073;-73
2024/02/12 10:27:36;;;;;;;1.85;1.70;;;;;;;-0.35;93.38;99118.06;5068326;28;20246;-73
2024/02/12 10:30:05;;;;;;;0.63;0.57;;;;;;;-0.33;93.11;99113.88;5049925;28;20029;-74
2024/02/12 10:32:34;;;;;;;0.50;0.50;;;;;;;-0.32;93.37;99119.84;5067349;28;20042;-73
2024/02/12 10:35:06;;;;;;;0.50;0.50;;;;;;;-0.35;93.39;99109.59;5049833;28;20154;-74
2024/02/12 10:37:33;;;;;;;0.50;0.50;;;;;;;-0.31;93.75;99119.00;5067707;28;20032;-74
2024/02/12 10:40:08;;;;;;;2.80;1.23;;;;;;;-0.32;93.72;99125.78;5049376;28;20025;-74
2024/02/12 10:42:41;;;;;;;3.60;0.93;;;;;;;-0.33;93.84;99121.50;5049693;28;20092;-73
2024/02/12 10:45:07;;;;;;;4.30;3.70;;;;;;;-0.32;93.85;99120.66;5067653;28;20374;-74
2024/02/12 10:47:35;;;;;;;2.10;1.90;;;;;;;-0.34;93.97;99124.91;5049468;28;20031;-75
2024/02/12 10:50:01;;;;;;;8.15;5.43;;;;;;;-0.28;93.97;99119.03;5067545;28;20080;-74
2024/02/12 10:52:27;;;;;;;6.90;6.30;;;;;;;-0.30;93.72;99121.56;5067408;28;20032;-75
2024/02/12 10:54:54;;;;;;;12.90;7.15;;;;;;;-0.27;94.02;99126.72;5067284;28;20100;-75
2024/02/12 10:57:21;;;;;;;5.90;5.32;;;;;;;-0.28;94.09;99121.59;5067228;28;20048;-74
2024/02/12 10:59:58;;;;;;;5.90;4.63;;;;;;;-0.29;94.07;99117.31;5049224;28;20152;-73
2024/02/12 11:02:24;;;;;;;1.10;1.02;;;;;;;-0.31;94.22;99117.31;5066962;28;20031;-74
2024/02/12 11:04:55;;;;;;;6.95;3.38;;;;;;;-0.32;94.25;99110.47;5049139;28;20021;-73
2024/02/12 11:07:24;;;;;;;;;;;;;;;-0.29;94.39;99123.25;5067656;28;20025;-73
2024/02/12 11:10:06;;;;;;;18.15;8.93;;;;;;;-0.28;94.50;99126.69;5067210;28;19909;-73
2024/02/12 11:12:34;;;;;;;6.60;5.60;;;;;;;-0.33;94.43;99115.53;5067124;28;20031;-73
2024/02/12 11:15:01;;;;;;;56.13;18.45;;;;;;;-0.33;94.61;99118.09;5067100;28;20081;-72
2024/02/12 11:17:27;;;;;;;17.60;15.60;;;;;;;-0.28;94.69;99127.56;5066906;28;20528;-72
2024/02/12 11:19:54;;;;;;;15.65;10.30;;;;;;;-0.29;94.81;99117.31;5065732;28;20017;-73
2024/02/12 11:22:29;;;;;;;14.05;9.63;;;;;;;-0.26;94.87;99128.41;5066841;28;20036;-72
2024/02/12 11:25:01;;;;;;;6.93;6.35;;;;;;;-0.26;94.96;99118.22;5066913;28;20073;-72
2024/02/12 11:27:39;;;;;;;11.15;5.93;;;;;;;-0.30;95.07;99106.25;5066282;28;20092;-74
2024/02/12 11:30:08;;;;;;;4.60;4.20;;;;;;;-0.20;94.89;99124.25;5066915;28;20032;-73
2024/02/12 11:32:34;;;;;;;11.35;10.00;;;;;;;-0.23;94.90;99119.97;5066644;28;20055;-72
2024/02/12 11:35:12;;;;;;;14.90;9.68;;;;;;;-0.20;95.07;99119.13;5066684;28;20024;-72
2024/02/12 11:37:56;;;;;;;11.77;10.48;;;;;;;-0.22;94.96;99114.03;5048768;28;20025;-72
2024/02/12 11:40:22;;;;;;;10.30;7.90;;;;;;;-0.21;94.79;99117.44;5066883;28;20075;-72
2024/02/12 11:42:51;;;;;;;12.45;8.43;;;;;;;-0.26;95.03;99117.38;5048449;28;20013;-72
2024/02/12 11:45:25;;;;;;;30.08;11.55;;;;;;;-0.26;95.27;99113.09;5066489;28;20032;-73